createdAt,value
2022-10-02T00:02:22.779Z,38.58
2022-10-02T00:04:54.069Z,38.39
2022-10-02T00:07:22.625Z,38.52
2022-10-02T00:09:51.960Z,38.16
2022-10-02T00:12:21.420Z,38.40
2022-10-02T00:14:50.133Z,38.46
2022-10-02T00:17:19.981Z,37.98
2022-10-02T00:19:47.904Z,38.36
2022-10-02T00:22:29.691Z,38.48
2022-10-02T00:25:01.100Z,38.21
2022-10-02T00:27:35.493Z,38.57
2022-10-02T00:30:03.794Z,38.39
2022-10-02T00:32:32.975Z,38.20
2022-10-02T00:35:20.082Z,38.12
2022-10-02T00:37:52.566Z,38.10
2022-10-02T00:40:33.886Z,38.41
2022-10-02T00:43:06.143Z,38.19
2022-10-02T00:46:08.241Z,38.33
2022-10-02T00:48:52.481Z,38.10
2022-10-02T00:51:28.708Z,38.30
2022-10-02T00:54:09.734Z,38.70
2022-10-02T00:56:40.015Z,38.61
2022-10-02T00:59:26.113Z,38.45
2022-10-02T01:01:56.303Z,38.27
2022-10-02T01:04:26.774Z,38.20
2022-10-02T01:06:54.906Z,38.05
2022-10-02T01:09:24.602Z,38.45
2022-10-02T01:11:52.479Z,38.06
2022-10-02T01:14:20.359Z,38.38
2022-10-02T01:16:48.582Z,38.15
2022-10-02T01:19:21.849Z,38.41
2022-10-02T01:21:50.542Z,38.44
2022-10-02T01:24:20.084Z,38.39
2022-10-02T01:26:49.633Z,38.62
2022-10-02T01:29:17.532Z,38.53
2022-10-02T01:31:45.449Z,38.46
2022-10-02T01:34:13.317Z,38.29
2022-10-02T01:36:41.480Z,38.56
2022-10-02T01:39:09.469Z,38.17
2022-10-02T01:41:41.194Z,38.27
2022-10-02T01:44:10.410Z,38.02
2022-10-02T01:46:40.450Z,38.34
2022-10-02T01:49:17.994Z,38.08
2022-10-02T01:51:50.651Z,38.41
2022-10-02T01:54:22.267Z,38.60
2022-10-02T01:56:55.482Z,38.30
2022-10-02T01:59:31.668Z,38.18
2022-10-02T02:02:12.631Z,38.37
2022-10-02T02:04:43.641Z,38.58
2022-10-02T02:07:13.551Z,38.39
2022-10-02T02:09:43.165Z,38.32
2022-10-02T02:12:13.656Z,38.74
2022-10-02T02:14:44.640Z,38.33
2022-10-02T02:17:14.677Z,38.40
2022-10-02T02:19:45.294Z,38.28
2022-10-02T02:22:15.140Z,38.42
2022-10-02T02:24:44.534Z,38.62
2022-10-02T02:27:16.760Z,38.31
2022-10-02T02:29:46.168Z,38.58
2022-10-02T02:32:15.725Z,38.31
2022-10-02T02:34:45.024Z,38.57
2022-10-02T02:37:16.522Z,38.62
2022-10-02T02:39:47.921Z,38.38
2022-10-02T02:42:17.935Z,38.52
2022-10-02T02:44:49.901Z,38.50
2022-10-02T02:47:19.050Z,38.44
2022-10-02T02:49:50.158Z,38.25
2022-10-02T02:52:19.392Z,38.52
2022-10-02T02:54:48.231Z,38.48
2022-10-02T02:57:17.769Z,38.53
2022-10-02T02:59:45.968Z,38.47
2022-10-02T03:02:15.263Z,38.71
2022-10-02T03:04:43.176Z,38.72
2022-10-02T03:07:13.089Z,38.58
2022-10-02T03:09:41.206Z,38.57
2022-10-02T03:12:14.112Z,38.60
2022-10-02T03:14:50.402Z,38.63
2022-10-02T03:17:25.696Z,38.58
2022-10-02T03:19:56.804Z,38.62
2022-10-02T03:22:28.137Z,38.31
2022-10-02T03:24:58.564Z,38.63
2022-10-02T03:27:34.020Z,38.81
2022-10-02T03:30:03.800Z,38.65
2022-10-02T03:32:33.161Z,38.28
2022-10-02T03:35:01.423Z,38.45
2022-10-02T03:37:29.380Z,38.80
2022-10-02T03:39:59.894Z,38.50
2022-10-02T03:42:29.100Z,38.88
2022-10-02T03:44:57.032Z,38.41
2022-10-02T03:47:24.977Z,38.65
2022-10-02T03:49:54.190Z,38.81
2022-10-02T03:52:22.866Z,38.80
2022-10-02T03:54:51.602Z,38.69
2022-10-02T03:57:21.274Z,38.60
2022-10-02T03:59:51.898Z,38.87
2022-10-02T04:02:28.794Z,38.92
2022-10-02T04:05:01.350Z,38.47
2022-10-02T04:07:31.901Z,38.58
2022-10-02T04:10:08.969Z,38.83
2022-10-02T04:12:39.747Z,38.88
2022-10-02T04:15:16.023Z,38.96
2022-10-02T04:17:45.591Z,38.52
2022-10-02T04:20:17.787Z,38.68
2022-10-02T04:22:47.986Z,38.91
2022-10-02T04:25:17.880Z,38.87
2022-10-02T04:27:49.033Z,38.73
2022-10-02T04:30:18.395Z,38.75
2022-10-02T04:32:47.043Z,38.79
2022-10-02T04:35:17.832Z,38.46
2022-10-02T04:38:05.511Z,38.90
2022-10-02T04:40:50.216Z,38.85
2022-10-02T04:43:26.773Z,38.64
2022-10-02T04:46:02.042Z,38.50
2022-10-02T04:48:38.409Z,38.91
2022-10-02T04:51:13.343Z,38.64
2022-10-02T04:53:56.380Z,38.70
2022-10-02T04:56:53.861Z,39.04
2022-10-02T04:59:27.795Z,39.04
2022-10-02T05:02:00.210Z,38.92
2022-10-02T05:04:47.510Z,38.87
2022-10-02T05:07:25.995Z,38.82
2022-10-02T05:09:58.403Z,38.91
2022-10-02T05:12:38.187Z,38.98
2022-10-02T05:15:21.849Z,38.67
2022-10-02T05:17:58.169Z,38.93
2022-10-02T05:20:53.932Z,39.05
2022-10-02T05:23:38.241Z,38.86
2022-10-02T05:26:23.499Z,39.04
2022-10-02T05:29:04.205Z,38.91
2022-10-02T05:31:37.750Z,38.89
2022-10-02T05:34:12.670Z,38.98
2022-10-02T05:36:59.630Z,38.77
2022-10-02T05:39:31.860Z,39.03
2022-10-02T05:42:02.583Z,38.54
2022-10-02T05:44:35.827Z,38.88
2022-10-02T05:47:14.184Z,39.20
2022-10-02T05:49:44.404Z,39.03
2022-10-02T05:52:14.720Z,39.00
2022-10-02T05:54:50.572Z,38.91
2022-10-02T05:57:22.609Z,39.15
2022-10-02T05:59:58.042Z,38.63
2022-10-02T06:02:28.830Z,38.86
2022-10-02T06:05:01.277Z,38.87
2022-10-02T06:07:29.321Z,38.81
2022-10-02T06:10:00.637Z,38.92
2022-10-02T06:12:30.613Z,39.02
2022-10-02T06:15:01.445Z,38.92
2022-10-02T06:17:31.337Z,39.02
2022-10-02T06:20:03.568Z,39.03
2022-10-02T06:22:34.290Z,39.08
2022-10-02T06:25:05.761Z,39.02
2022-10-02T06:27:36.564Z,39.27
2022-10-02T06:30:08.768Z,38.79
2022-10-02T06:32:39.090Z,38.85
2022-10-02T06:35:10.699Z,38.94
2022-10-02T06:37:46.200Z,38.81
2022-10-02T06:40:43.659Z,39.13
2022-10-02T06:43:17.391Z,38.97
2022-10-02T06:45:47.976Z,39.31
2022-10-02T06:48:19.451Z,39.02
2022-10-02T06:50:51.753Z,38.69
2022-10-02T06:53:39.260Z,39.18
2022-10-02T06:56:17.677Z,39.26
2022-10-02T06:58:52.366Z,39.04
2022-10-02T07:01:26.887Z,38.90
2022-10-02T07:04:16.810Z,38.96
2022-10-02T07:06:55.335Z,38.82
2022-10-02T07:09:34.672Z,38.81
2022-10-02T07:12:08.326Z,38.86
2022-10-02T07:14:47.531Z,38.99
2022-10-02T07:17:27.658Z,39.59
2022-10-02T07:20:14.192Z,39.01
2022-10-02T07:22:53.380Z,39.08
2022-10-02T07:25:28.511Z,38.95
2022-10-02T07:28:02.003Z,39.01
2022-10-02T07:30:30.952Z,39.04
2022-10-02T07:33:00.428Z,38.87
2022-10-02T07:35:48.380Z,39.02
2022-10-02T07:38:46.811Z,39.36
2022-10-02T07:41:24.192Z,39.13
2022-10-02T07:43:56.000Z,38.75
2022-10-02T07:46:26.859Z,39.30
2022-10-02T07:49:00.906Z,39.32
2022-10-02T07:51:51.097Z,39.16
2022-10-02T07:54:52.450Z,39.28
2022-10-02T07:57:26.160Z,39.28
2022-10-02T08:00:00.446Z,39.29
2022-10-02T08:02:31.620Z,38.73
2022-10-02T08:05:02.151Z,39.16
2022-10-02T08:07:30.763Z,39.35
2022-10-02T08:09:59.115Z,39.25
2022-10-02T08:12:29.006Z,39.20
2022-10-02T08:14:58.614Z,38.93
2022-10-02T08:17:30.052Z,39.08
2022-10-02T08:20:00.688Z,39.44
2022-10-02T08:22:31.755Z,38.85
2022-10-02T08:25:04.524Z,39.11
2022-10-02T08:27:45.688Z,39.00
2022-10-02T08:30:15.749Z,39.32
2022-10-02T08:32:43.953Z,38.92
2022-10-02T08:35:13.069Z,39.02
2022-10-02T08:37:44.686Z,38.76
2022-10-02T08:40:37.825Z,39.23
2022-10-02T08:43:32.309Z,39.14
2022-10-02T08:46:37.499Z,39.39
2022-10-02T08:49:44.206Z,39.17
2022-10-02T08:52:38.474Z,39.43
2022-10-02T08:55:31.990Z,39.19
2022-10-02T08:58:22.690Z,39.00
2022-10-02T09:00:53.635Z,39.07
2022-10-02T09:03:45.835Z,39.44
2022-10-02T09:06:45.367Z,38.93
2022-10-02T09:09:52.323Z,39.22
2022-10-02T09:12:45.805Z,39.50
2022-10-02T09:15:16.457Z,39.20
2022-10-02T09:17:49.236Z,39.00
2022-10-02T09:20:41.479Z,39.27
2022-10-02T09:23:57.008Z,39.20
2022-10-02T09:26:47.633Z,39.41
2022-10-02T09:29:45.525Z,39.31
2022-10-02T09:33:01.550Z,39.17
2022-10-02T09:36:06.523Z,39.21
2022-10-02T09:39:05.494Z,39.04
2022-10-02T09:42:09.721Z,39.17
2022-10-02T09:45:17.426Z,39.21
2022-10-02T09:48:16.603Z,39.20
2022-10-02T09:51:13.355Z,39.31
2022-10-02T09:54:11.278Z,39.21
2022-10-02T09:57:06.936Z,39.18
2022-10-02T10:00:03.985Z,39.23
2022-10-02T10:03:16.557Z,39.08
2022-10-02T10:06:25.719Z,39.17
2022-10-02T10:09:05.893Z,39.41
2022-10-02T10:12:12.554Z,39.22
2022-10-02T10:15:12.809Z,39.23
2022-10-02T10:18:09.909Z,39.30
2022-10-02T10:21:08.210Z,39.50
2022-10-02T10:23:57.711Z,39.42
2022-10-02T10:26:44.080Z,39.59
2022-10-02T10:29:33.311Z,39.34
2022-10-02T10:32:38.668Z,39.56
2022-10-02T10:35:31.804Z,38.97
2022-10-02T10:38:43.188Z,39.24
2022-10-02T10:41:40.090Z,39.19
2022-10-02T10:44:35.712Z,39.31
2022-10-02T10:47:27.821Z,39.16
2022-10-02T10:50:38.588Z,39.21
2022-10-02T10:53:22.789Z,39.37
2022-10-02T10:56:10.725Z,39.56
2022-10-02T10:58:52.809Z,39.23
2022-10-02T11:01:21.526Z,39.32
2022-10-02T11:04:13.395Z,39.32
2022-10-02T11:06:56.266Z,39.01
2022-10-02T11:09:37.627Z,39.36
2022-10-02T11:12:16.644Z,39.27
2022-10-02T11:14:54.416Z,39.42
2022-10-02T11:17:34.775Z,39.23
2022-10-02T11:20:17.915Z,39.29
2022-10-02T11:23:06.197Z,39.37
2022-10-02T11:25:44.989Z,39.25
2022-10-02T11:28:25.707Z,39.46
2022-10-02T11:31:01.888Z,39.47
2022-10-02T11:33:49.945Z,39.45
2022-10-02T11:36:46.625Z,39.48
2022-10-02T11:39:21.672Z,39.06
2022-10-02T11:41:59.337Z,39.52
2022-10-02T11:44:50.038Z,39.07
2022-10-02T11:47:30.697Z,39.37
2022-10-02T11:50:30.303Z,39.60
2022-10-02T11:53:12.717Z,39.61
2022-10-02T11:55:50.514Z,39.32
2022-10-02T11:58:23.226Z,39.57
2022-10-02T12:01:09.596Z,39.72
2022-10-02T12:03:46.707Z,39.27
2022-10-02T12:06:19.601Z,39.19
2022-10-02T12:08:54.637Z,39.40
2022-10-02T12:11:25.856Z,39.46
2022-10-02T12:14:18.604Z,39.33
2022-10-02T12:16:53.587Z,39.46
2022-10-02T12:19:34.922Z,39.42
2022-10-02T12:22:25.654Z,39.61
2022-10-02T12:25:15.814Z,39.75
2022-10-02T12:27:50.865Z,39.31
2022-10-02T12:30:20.239Z,39.48
2022-10-02T12:32:55.695Z,39.49
2022-10-02T12:35:31.430Z,39.38
2022-10-02T12:38:05.856Z,39.46
2022-10-02T12:40:36.244Z,39.35
2022-10-02T12:43:44.208Z,39.54
2022-10-02T12:46:30.195Z,39.17
2022-10-02T12:49:12.353Z,39.61
2022-10-02T12:51:43.829Z,39.36
2022-10-02T12:54:37.477Z,39.46
2022-10-02T12:57:53.195Z,39.38
2022-10-02T13:00:21.304Z,39.63
2022-10-02T13:03:37.108Z,39.85
2022-10-02T13:06:40.520Z,39.69
2022-10-02T13:09:21.428Z,39.64
2022-10-02T13:11:56.189Z,39.46
2022-10-02T13:14:45.713Z,39.52
2022-10-02T13:17:23.770Z,39.47
2022-10-02T13:19:58.200Z,39.65
2022-10-02T13:22:31.374Z,39.23
2022-10-02T13:25:26.598Z,39.50
2022-10-02T13:27:59.774Z,39.65
2022-10-02T13:30:28.431Z,39.58
2022-10-02T13:33:15.664Z,39.36
2022-10-02T13:35:57.761Z,39.34
2022-10-02T13:38:35.905Z,39.48
2022-10-02T13:41:13.259Z,39.45
2022-10-02T13:43:50.577Z,39.48
2022-10-02T13:46:25.141Z,39.65
2022-10-02T13:48:59.017Z,39.47
2022-10-02T13:51:42.090Z,39.48
2022-10-02T13:54:22.077Z,39.21
2022-10-02T13:56:55.076Z,39.59
2022-10-02T13:59:32.998Z,39.48
2022-10-02T14:02:08.695Z,39.51
2022-10-02T14:04:43.341Z,39.51
2022-10-02T14:07:19.286Z,39.27
2022-10-02T14:09:53.224Z,39.63
2022-10-02T14:12:29.737Z,39.50
2022-10-02T14:15:25.020Z,39.38
2022-10-02T14:18:13.925Z,39.62
2022-10-02T14:20:45.056Z,39.51
2022-10-02T14:23:28.838Z,39.36
2022-10-02T14:26:02.981Z,39.49
2022-10-02T14:28:45.129Z,39.52
2022-10-02T14:31:50.216Z,39.51
2022-10-02T14:34:46.300Z,39.60
2022-10-02T14:37:47.177Z,39.87
2022-10-02T14:40:16.522Z,39.72
2022-10-02T14:42:56.660Z,39.45
2022-10-02T14:45:41.083Z,39.11
2022-10-02T14:48:16.393Z,39.29
2022-10-02T14:51:02.761Z,39.45
2022-10-02T14:53:42.102Z,39.45
2022-10-02T14:56:29.182Z,39.81
2022-10-02T14:59:03.818Z,39.52
2022-10-02T15:01:33.194Z,39.36
2022-10-02T15:04:29.565Z,39.58
2022-10-02T15:07:04.087Z,39.79
2022-10-02T15:09:40.435Z,39.49
2022-10-02T15:12:14.952Z,39.67
2022-10-02T15:14:51.201Z,39.58
2022-10-02T15:17:48.382Z,39.41
2022-10-02T15:20:22.598Z,39.71
2022-10-02T15:22:56.837Z,39.87
2022-10-02T15:25:31.871Z,39.79
2022-10-02T15:28:24.159Z,39.60
2022-10-02T15:30:53.831Z,39.31
2022-10-02T15:33:30.816Z,39.63
2022-10-02T15:36:26.200Z,39.71
2022-10-02T15:39:00.994Z,40.39
2022-10-02T15:41:50.038Z,39.55
2022-10-02T15:44:50.517Z,39.83
2022-10-02T15:47:26.575Z,39.70
2022-10-02T15:50:05.408Z,39.94
2022-10-02T15:52:37.674Z,39.91
2022-10-02T15:55:14.972Z,39.34
2022-10-02T15:57:54.793Z,39.64
2022-10-02T16:00:23.987Z,39.42
2022-10-02T16:03:11.406Z,39.49
2022-10-02T16:05:46.096Z,39.36
2022-10-02T16:08:45.411Z,39.61
2022-10-02T16:11:20.578Z,39.70
2022-10-02T16:13:52.547Z,39.78
2022-10-02T16:16:32.618Z,39.38
2022-10-02T16:19:07.713Z,39.71
2022-10-02T16:21:46.101Z,39.66
2022-10-02T16:24:38.295Z,39.56
2022-10-02T16:27:30.185Z,39.68
2022-10-02T16:30:08.550Z,39.55
2022-10-02T16:32:54.931Z,39.77
2022-10-02T16:35:55.001Z,39.79
2022-10-02T16:38:26.738Z,39.56
2022-10-02T16:41:05.452Z,39.74
2022-10-02T16:43:43.249Z,39.79
2022-10-02T16:46:11.819Z,39.65
2022-10-02T16:48:43.148Z,39.53
2022-10-02T16:51:15.802Z,39.71
2022-10-02T16:53:48.677Z,39.61
2022-10-02T16:56:18.649Z,39.60
2022-10-02T16:58:49.252Z,39.53
2022-10-02T17:01:23.852Z,39.52
2022-10-02T17:04:13.952Z,39.75
2022-10-02T17:06:43.136Z,39.49
2022-10-02T17:09:15.097Z,39.52
2022-10-02T17:11:47.831Z,39.66
2022-10-02T17:14:18.365Z,39.70
2022-10-02T17:16:48.958Z,39.48
2022-10-02T17:19:26.458Z,39.49
2022-10-02T17:21:55.461Z,39.72
2022-10-02T17:24:48.021Z,39.65
2022-10-02T17:27:18.125Z,40.15
2022-10-02T17:29:54.323Z,39.92
2022-10-02T17:32:35.893Z,39.57
2022-10-02T17:35:07.682Z,40.01
2022-10-02T17:37:49.915Z,39.46
2022-10-02T17:40:19.755Z,39.76
2022-10-02T17:42:51.892Z,39.50
2022-10-02T17:45:28.992Z,39.52
2022-10-02T17:48:14.808Z,39.33
2022-10-02T17:50:54.990Z,39.77
2022-10-02T17:54:05.756Z,39.58
2022-10-02T17:56:49.938Z,39.72
2022-10-02T17:59:48.280Z,39.79
2022-10-02T18:02:23.681Z,39.82
2022-10-02T18:05:08.837Z,39.65
2022-10-02T18:07:42.802Z,39.77
2022-10-02T18:10:16.338Z,39.65
2022-10-02T18:13:07.666Z,39.41
2022-10-02T18:15:43.763Z,39.97
2022-10-02T18:18:21.235Z,39.87
2022-10-02T18:20:57.143Z,39.80
2022-10-02T18:23:55.762Z,39.51
2022-10-02T18:26:29.714Z,39.91
2022-10-02T18:29:10.772Z,39.75
2022-10-02T18:32:03.308Z,39.88
2022-10-02T18:34:52.233Z,39.59
2022-10-02T18:37:28.476Z,39.83
2022-10-02T18:40:07.259Z,39.85
2022-10-02T18:42:46.043Z,39.62
2022-10-02T18:45:39.585Z,39.70
2022-10-02T18:48:19.641Z,39.81
2022-10-02T18:51:01.161Z,39.62
2022-10-02T18:53:40.987Z,39.75
2022-10-02T18:56:09.056Z,39.96
2022-10-02T18:59:07.490Z,39.96
2022-10-02T19:01:52.222Z,39.86
2022-10-02T19:04:49.725Z,39.96
2022-10-02T19:07:19.549Z,39.62
2022-10-02T19:09:47.726Z,39.73
2022-10-02T19:12:17.064Z,39.80
2022-10-02T19:14:46.398Z,39.79
2022-10-02T19:17:15.356Z,39.76
2022-10-02T19:19:44.845Z,39.74
2022-10-02T19:22:17.682Z,39.53
2022-10-02T19:24:45.984Z,39.90
2022-10-02T19:27:18.200Z,39.83
2022-10-02T19:29:48.662Z,39.99
2022-10-02T19:32:19.544Z,39.51
2022-10-02T19:34:49.888Z,39.83
2022-10-02T19:37:18.515Z,39.71
2022-10-02T19:39:50.301Z,40.09
2022-10-02T19:42:19.588Z,39.49
2022-10-02T19:44:48.345Z,39.91
2022-10-02T19:47:17.941Z,39.94
2022-10-02T19:49:49.316Z,39.68
2022-10-02T19:52:37.627Z,39.68
2022-10-02T19:55:07.668Z,39.85
2022-10-02T19:57:38.286Z,39.85
2022-10-02T20:00:10.408Z,39.43
2022-10-02T20:02:39.769Z,39.63
2022-10-02T20:05:10.197Z,39.44
2022-10-02T20:07:38.457Z,39.91
2022-10-02T20:10:11.204Z,39.42
2022-10-02T20:12:40.622Z,39.60
2022-10-02T20:15:12.932Z,39.87
2022-10-02T20:17:39.813Z,39.71
2022-10-02T20:20:12.009Z,39.86
2022-10-02T20:22:41.435Z,39.98
2022-10-02T20:25:12.282Z,39.87
2022-10-02T20:27:42.913Z,39.69
2022-10-02T20:30:13.424Z,39.88
2022-10-02T20:32:43.802Z,39.84
2022-10-02T20:35:16.234Z,39.60
2022-10-02T20:37:44.186Z,39.53
2022-10-02T20:40:14.539Z,39.57
2022-10-02T20:42:46.275Z,39.59
2022-10-02T20:45:14.783Z,39.53
2022-10-02T20:48:06.927Z,39.74
2022-10-02T20:50:46.478Z,39.40
2022-10-02T20:53:58.641Z,39.61
2022-10-02T20:56:56.163Z,39.24
2022-10-02T20:59:49.418Z,39.88
2022-10-02T21:02:25.600Z,39.62
2022-10-02T21:05:12.364Z,39.80
2022-10-02T21:08:04.663Z,39.67
2022-10-02T21:10:52.962Z,39.82
2022-10-02T21:13:37.717Z,39.46
2022-10-02T21:16:42.323Z,39.29
2022-10-02T21:19:22.593Z,39.48
2022-10-02T21:22:03.636Z,39.43
2022-10-02T21:25:05.385Z,39.65
2022-10-02T21:28:08.647Z,39.59
2022-10-02T21:30:37.979Z,39.41
2022-10-02T21:33:06.753Z,39.68
2022-10-02T21:35:41.767Z,39.13
2022-10-02T21:38:49.083Z,39.34
2022-10-02T21:41:48.543Z,39.39
2022-10-02T21:44:54.775Z,39.42
2022-10-02T21:47:35.506Z,39.16
2022-10-02T21:50:36.391Z,39.56
2022-10-02T21:53:46.072Z,39.54
2022-10-02T21:56:39.890Z,39.63
2022-10-02T21:59:32.259Z,39.85
2022-10-02T22:02:14.575Z,39.68
2022-10-02T22:05:06.241Z,39.56
2022-10-02T22:07:35.473Z,39.56
2022-10-02T22:10:05.257Z,39.85
2022-10-02T22:12:42.014Z,39.62
2022-10-02T22:15:13.629Z,40.04
2022-10-02T22:17:51.728Z,39.61
2022-10-02T22:20:55.798Z,40.14
2022-10-02T22:23:48.438Z,39.98
2022-10-02T22:26:26.009Z,39.53
2022-10-02T22:28:56.217Z,39.80
2022-10-02T22:31:36.395Z,39.86
2022-10-02T22:34:11.455Z,39.90
2022-10-02T22:36:48.419Z,39.99
2022-10-02T22:39:17.392Z,39.76
2022-10-02T22:41:50.482Z,39.86
2022-10-02T22:44:24.507Z,39.94
2022-10-02T22:46:57.942Z,40.11
2022-10-02T22:49:29.395Z,40.23
2022-10-02T22:52:01.363Z,39.88
2022-10-02T22:54:33.143Z,39.79
2022-10-02T22:57:09.727Z,40.31
2022-10-02T22:59:42.043Z,40.45
2022-10-02T23:02:12.178Z,40.44
2022-10-02T23:04:44.838Z,40.27
2022-10-02T23:07:16.450Z,40.10
2022-10-02T23:09:48.072Z,40.22
2022-10-02T23:12:17.942Z,40.29
2022-10-02T23:14:55.638Z,40.17
2022-10-02T23:17:25.727Z,40.35
2022-10-02T23:19:55.693Z,40.11
2022-10-02T23:22:25.170Z,40.03
2022-10-02T23:24:55.522Z,40.09
2022-10-02T23:27:24.914Z,40.17
2022-10-02T23:29:56.619Z,40.27
2022-10-02T23:32:26.868Z,40.09
2022-10-02T23:35:00.379Z,40.46
2022-10-02T23:37:32.382Z,39.95
2022-10-02T23:40:07.485Z,40.50
2022-10-02T23:42:37.565Z,40.18
2022-10-02T23:45:10.427Z,40.20
2022-10-02T23:47:45.242Z,40.44
2022-10-02T23:50:21.187Z,40.12
2022-10-02T23:53:01.313Z,40.02
2022-10-02T23:55:39.059Z,40.16
2022-10-02T23:58:29.518Z,40.64
